Seven Seas Mariner — C6VV8 — position and weather

sailwx.info

Track history (hours):
 
Tides and Currents Weather Stations Pressure Air Temp Water Temp Dewpoint Dewpoint Depression Visibility Wind Speed Wind Dir Waves Ship Positions

Seven Seas Mariner

Last reported at 2018-Sep-19 02:14 UTC. Time now 2018-Sep-19 03:27 UTC.
Position N 50°23' W 128°53'.

Length 216 m; draft 7.2 m.

Type: Passenger vessel. MMSI: 311622000.

Date/timePositionNaut miles runAvg speedWind from/ knotsBaromVisibWave heightAir tempDewpointWater temp
2018-Sep-19 02:14N 50°23' W 128°53'  
2018-Sep-16 09:22N 58°17' W 136°23'619.7
2018-Sep-16 09:03N 58°19' W 136°12'119.6
2018-Sep-16 09:00N 58°19' W 136°10'917.8
2018-Sep-16 08:30N 58°19' W 135°53'919.3
2018-Sep-16 08:03N 58°17' W 135°38'119.6
2018-Sep-16 08:01N 58°16' W 135°36'1019.5
2018-Sep-16 07:30N 58°13' W 135°18'228 4.9
2018-Sep-14 09:21N 55°10' W 131°11'1317.4
2018-Sep-14 08:36N 54°57' W 131°05'219.6
2018-Sep-14 08:30N 54°55' W 131°05'919.5
2018-Sep-14 08:03N 54°46' W 131°06'116.3
2018-Sep-14 08:00N 54°45' W 131°07'814.1
2018-Sep-14 07:28N 54°39' W 131°14'818.6
2018-Sep-14 07:03N 54°32' W 131°13'119.9
2018-Sep-14 06:59N 54°30' W 131°12'1019.9
2018-Sep-14 06:30N 54°22' W 131°05'919.3
2018-Sep-14 06:03N 54°13' W 131°02'119.4
2018-Sep-14 06:00N 54°12' W 131°02'1019.5
2018-Sep-14 05:30N 54°03' W 131°01'919.1
2018-Sep-14 05:03N 53°54' W 130°59'118.8
2018-Sep-14 05:00N 53°53' W 130°58'918.6
2018-Sep-14 04:30N 53°44' W 130°56'818.5
2018-Sep-14 04:03N 53°36' W 130°53'118.7
2018-Sep-14 04:00N 53°35' W 130°53'919.0
2018-Sep-14 03:30N 53°26' W 130°50'918.8
2018-Sep-14 03:03N 53°17' W 130°46'119.0
2018-Sep-14 03:00N 53°17' W 130°46'1118.8
2018-Sep-14 02:27N 53°07' W 130°40'5318.7
2018-Sep-13 23:36N 52°17' W 130°10'219.5
2018-Sep-13 23:30N 52°15' W 130°09'919.2
2018-Sep-13 23:03N 52°07' W 130°04'115.4
2018-Sep-13 23:00N 52°06' W 130°04'713.0
2018-Sep-13 22:29N 51°60' W 129°59'614.5
2018-Sep-13 22:03N 51°54' W 129°55'115.1
2018-Sep-13 22:00N 51°53' W 129°54'715.0
2018-Sep-13 21:30N 51°47' W 129°48'714.8
2018-Sep-13 21:03N 51°41' W 129°43'115.2
2018-Sep-13 21:00N 51°41' W 129°42'815.3
2018-Sep-13 20:30N 51°34' W 129°35'716.0
2018-Sep-13 20:03N 51°28' W 129°29'116.4
2018-Sep-13 20:01N 51°28' W 129°28'816.2
2018-Sep-13 19:30N 51°24' W 129°17'716.2
2018-Sep-13 19:04N 51°21' W 129°06'115.8
2018-Sep-13 19:00N 51°20' W 129°05'815.6
2018-Sep-13 18:30N 51°17' W 128°53'715.3
2018-Sep-13 18:04N 51°14' W 128°43'115.3
2018-Sep-13 18:00N 51°14' W 128°42'815.5
2018-Sep-13 17:31N 51°11' W 128°31'715.2
2018-Sep-13 17:04N 51°08' W 128°21'115.5
2018-Sep-13 17:01N 51°08' W 128°20'815.5
2018-Sep-13 16:31N 51°05' W 128°09'715.3
2018-Sep-13 16:03N 51°02' W 127°59'114.9
2018-Sep-13 16:00N 51°01' W 127°58'815.0
2018-Sep-13 15:30N 50°59' W 127°46'916.2
2018-Sep-13 14:57N 50°53' W 127°35'819.3
2018-Sep-13 14:30N 50°49' W 127°23'919.0
2018-Sep-13 14:00N 50°45' W 127°10'918.5
2018-Sep-13 13:30N 50°42' W 126°56'817.6
2018-Sep-13 13:03N 50°37' W 126°46'117.5
2018-Sep-13 13:00N 50°36' W 126°45'715.2
2018-Sep-13 12:31N 50°31' W 126°37'818.2
2018-Sep-13 12:03N 50°30' W 126°24'3816.8
2018-Sep-13 09:49N 50°20' W 125°27'515.0
2018-Sep-13 09:28N 50°16' W 125°23'717.4
2018-Sep-13 09:04N 50°09' W 125°21'112.3
2018-Sep-13 09:00N 50°08' W 125°21'510.8
2018-Sep-13 08:30N 50°04' W 125°15'4 9.6
2018-Sep-13 08:03N 50°00' W 125°12'114.6
2018-Sep-13 08:01N 49°60' W 125°12'816.7
2018-Sep-13 07:30N 49°54' W 125°03'714.5
2018-Sep-13 07:03N 49°50' W 124°55'113.5
2018-Sep-13 07:00N 49°49' W 124°54'713.8
2018-Sep-13 06:30N 49°44' W 124°47'613.8
2018-Sep-13 06:03N 49°39' W 124°41'114.0
2018-Sep-13 06:00N 49°39' W 124°41'713.6
2018-Sep-13 05:29N 49°33' W 124°34'613.6
2018-Sep-13 05:03N 49°29' W 124°28'114.1
2018-Sep-13 05:00N 49°28' W 124°27'714.2
2018-Sep-13 04:29N 49°25' W 124°17'614.6
2018-Sep-13 04:03N 49°23' W 124°08'115.7
2018-Sep-13 04:00N 49°23' W 124°07'815.6
2018-Sep-13 03:30N 49°22' W 123°55'715.0
2018-Sep-13 03:03N 49°21' W 123°45'114.8
2018-Sep-13 03:00N 49°21' W 123°43'815.0
2018-Sep-13 02:30N 49°19' W 123°32'614.7
2018-Sep-13 02:03N 49°19' W 123°22'115.1
2018-Sep-13 02:00N 49°19' W 123°21'714.9
2018-Sep-13 01:30N 49°19' W 123°09'2 5.5
2018-Sep-13 01:03N 49°17' W 123°07'0 0.2
2018-Sep-13 01:01N 49°17' W 123°07'0 0.0
2018-Sep-13 00:31N 49°17' W 123°07'0 0.0
2018-Sep-13 00:03N 49°17' W 123°07'0 0.0
2018-Sep-13 00:01N 49°17' W 123°07'0 0.0
2018-Sep-12 23:30N 49°17' W 123°07'0 0.0
2018-Sep-12 23:03N 49°17' W 123°07'0 0.0
2018-Sep-12 23:00N 49°17' W 123°07'0 0.0
2018-Sep-12 22:30N 49°17' W 123°07'0 0.0
2018-Sep-12 22:03N 49°17' W 123°07'0 0.0
2018-Sep-12 22:01N 49°17' W 123°07'0 0.0
2018-Sep-12 21:27N 49°17' W 123°07'0 0.0
2018-Sep-12 21:01N 49°17' W 123°07'0 0.0
2018-Sep-12 20:31N 49°17' W 123°07'0 0.0
2018-Sep-12 20:04N 49°17' W 123°07'0 0.0
2018-Sep-12 20:00N 49°17' W 123°07'0 0.0
2018-Sep-12 19:31N 49°17' W 123°07'0 0.0
2018-Sep-12 19:03N 49°17' W 123°07'0 0.0
2018-Sep-12 19:00N 49°17' W 123°07'0 0.0
2018-Sep-12 18:31N 49°17' W 123°07'0 0.0
2018-Sep-12 18:03N 49°17' W 123°07'0 0.0
2018-Sep-12 18:01N 49°17' W 123°07'0 0.0
2018-Sep-12 17:30N 49°17' W 123°07'0 0.0
2018-Sep-12 17:03N 49°17' W 123°07'0 0.0
2018-Sep-12 17:01N 49°17' W 123°07'0 0.0
2018-Sep-12 16:30N 49°17' W 123°07'0 0.0
2018-Sep-12 16:04N 49°17' W 123°07'0 0.0
2018-Sep-12 16:01N 49°17' W 123°07'0 0.0
2018-Sep-12 15:30N 49°17' W 123°07'0 0.0
2018-Sep-12 15:03N 49°17' W 123°07'0 0.0
2018-Sep-12 15:00N 49°17' W 123°07'0 0.0
2018-Sep-12 14:30N 49°17' W 123°07'0 0.0
2018-Sep-12 14:00N 49°17' W 123°07'0 0.0
2018-Sep-12 13:31N 49°17' W 123°07'0 0.1
2018-Sep-12 13:03N 49°17' W 123°07'0 0.2
2018-Sep-12 13:00N 49°17' W 123°07'2 4.6
2018-Sep-12 12:30N 49°19' W 123°09'511.1
2018-Sep-12 12:03N 49°18' W 123°16'112.3
2018-Sep-12 12:00N 49°18' W 123°17'611.6
2018-Sep-12 11:30N 49°12' W 123°20'612.4
2018-Sep-12 11:03N 49°07' W 123°22'112.3
2018-Sep-12 10:59N 49°06' W 123°22'511.3
2018-Sep-12 10:30N 49°01' W 123°17'511.5
2018-Sep-12 10:02N 48°58' W 123°11'011.2
2018-Sep-12 10:00N 48°58' W 123°11'611.1
2018-Sep-12 09:30N 48°54' W 123°05'511.4
2018-Sep-12 09:03N 48°49' W 123°00'112.2
2018-Sep-12 09:00N 48°49' W 123°00'611.2
2018-Sep-12 08:30N 48°45' W 123°06'512.2
2018-Sep-12 08:04N 48°42' W 123°13'114.2
2018-Sep-12 08:01N 48°42' W 123°14'611.2
2018-Sep-12 07:30N 48°36' W 123°13'512.2
2018-Sep-12 07:03N 48°31' W 123°11'112.0
2018-Sep-12 06:59N 48°30' W 123°11'612.0
2018-Sep-12 06:30N 48°24' W 123°12'511.9
2018-Sep-12 06:03N 48°22' W 123°19'112.9
2018-Sep-12 06:00N 48°22' W 123°20'4 7.1
2018-Sep-12 05:30N 48°24' W 123°24'1 0.0
2018-Sep-11 14:31N 48°25' W 123°23'0 0.4
2018-Sep-11 14:30N 48°25' W 123°23'1 2.9
2018-Sep-11 14:00N 48°24' W 123°25'4 7.5
2018-Sep-11 13:30N 48°23' W 123°20'510.6
2018-Sep-11 13:03N 48°25' W 123°13'111.2
2018-Sep-11 13:00N 48°25' W 123°13'612.7
2018-Sep-11 12:30N 48°32' W 123°13'612.5
2018-Sep-11 12:03N 48°37' W 123°15'112.8
2018-Sep-11 12:00N 48°38' W 123°15'610.6
2018-Sep-11 11:29N 48°43' W 123°12'613.3
2018-Sep-11 11:03N 48°46' W 123°04'114.2
2018-Sep-11 11:00N 48°46' W 123°03'510.2
2018-Sep-11 10:30N 48°51' W 123°04'612.8
2018-Sep-11 10:03N 48°55' W 123°10'112.0
2018-Sep-11 10:00N 48°55' W 123°11'712.7
2018-Sep-11 09:30N 48°60' W 123°18'613.1
2018-Sep-11 09:03N 49°04' W 123°25'113.5
2018-Sep-11 09:00N 49°04' W 123°26'713.8
2018-Sep-11 08:31N 49°09' W 123°33'714.4
2018-Sep-11 08:03N 49°13' W 123°41'114.8
2018-Sep-11 08:00N 49°13' W 123°42'714.3
2018-Sep-11 07:30N 49°17' W 123°51'614.0
2018-Sep-11 07:03N 49°20' W 123°60'114.6
2018-Sep-11 07:01N 49°20' W 124°01'714.6
2018-Sep-11 06:30N 49°23' W 124°11'614.3
2018-Sep-11 06:04N 49°26' W 124°20'114.0
2018-Sep-11 06:00N 49°26' W 124°21'713.9
2018-Sep-11 05:31N 49°30' W 124°30'714.7
2018-Sep-11 05:03N 49°35' W 124°36'115.4
2018-Sep-11 05:00N 49°36' W 124°37'714.5
2018-Sep-11 04:31N 49°41' W 124°44'714.6
2018-Sep-11 04:04N 49°46' W 124°51'114.3
2018-Sep-11 04:00N 49°47' W 124°52'714.4
2018-Sep-11 03:30N 49°51' W 125°00'715.4
2018-Sep-11 03:03N 49°56' W 125°08'116.2
2018-Sep-11 03:00N 49°57' W 125°09'612.7
2018-Sep-11 02:30N 50°02' W 125°14'613.2
2018-Sep-11 02:03N 50°07' W 125°19'114.6
2018-Sep-11 02:00N 50°07' W 125°20'815.6
2018-Sep-11 01:30N 50°15' W 125°23'5416.5
2018-Sep-10 22:13N 50°35' W 126°42'316.5
2018-Sep-10 22:01N 50°37' W 126°46'219.1
2018-Sep-10 21:56N 50°38' W 126°48'1118.8
2018-Sep-10 21:22N 50°43' W 127°03'618.5
2018-Sep-10 21:03N 50°45' W 127°12'218.3
2018-Sep-10 20:57N 50°45' W 127°15'714.8
2018-Sep-10 20:29N 50°46' W 127°25'714.4
2018-Sep-10 20:00N 50°52' W 127°33'918.5
2018-Sep-10 19:30N 50°57' W 127°44'1015.2
2018-Sep-10 18:49N 51°03' W 127°58'618.7
2018-Sep-10 18:31N 51°06' W 128°06'817.9
2018-Sep-10 18:04N 51°10' W 128°17'117.4
2018-Sep-10 18:00N 51°10' W 128°18'917.4
2018-Sep-10 17:30N 51°14' W 128°31'817.7
2018-Sep-10 17:04N 51°18' W 128°42'117.3
2018-Sep-10 17:01N 51°18' W 128°43'917.6
2018-Sep-10 16:31N 51°23' W 128°55'817.1
2018-Sep-10 16:03N 51°27' W 129°06'116.5
2018-Sep-10 16:01N 51°27' W 129°07'917.0
2018-Sep-10 15:30N 51°32' W 129°19'716.6
2018-Sep-10 15:04N 51°35' W 129°29'116.8
2018-Sep-10 15:00N 51°35' W 129°31'1616.1
2018-Sep-10 13:59N 51°46' W 129°51'10417.9
2018-Sep-10 08:11N 53°24' W 130°48'216.7
2018-Sep-10 08:02N 53°26' W 130°48'117.3
2018-Sep-10 08:00N 53°27' W 130°49'917.0
2018-Sep-10 07:29N 53°35' W 130°52'817.4
2018-Sep-10 07:02N 53°43' W 130°55'117.9
2018-Sep-10 07:00N 53°43' W 130°55'917.1
2018-Sep-10 06:30N 53°52' W 130°58'714.9
2018-Sep-10 06:03N 53°58' W 131°01'115.9
2018-Sep-10 06:00N 53°59' W 131°01'816.1
2018-Sep-10 05:30N 54°07' W 131°02'716.1
2018-Sep-10 05:03N 54°14' W 131°02'115.9
2018-Sep-10 05:00N 54°15' W 131°02'815.2
2018-Sep-10 04:30N 54°22' W 131°05'715.4
2018-Sep-10 04:03N 54°28' W 131°11'115.1
2018-Sep-10 04:00N 54°29' W 131°11'714.9
2018-Sep-10 03:30N 54°36' W 131°17'815.7
2018-Sep-10 02:59N 54°43' W 131°10'815.7
2018-Sep-10 02:30N 54°50' W 131°05'  
Track history (hours):
 
Tides and Currents Weather Stations Pressure Air Temp Water Temp Dewpoint Dewpoint Depression Visibility Wind Speed Wind Dir Waves Ship Positions

Seven Seas Mariner

Last reported at 2018-Sep-19 02:14 UTC. Time now 2018-Sep-19 03:27 UTC.
Position N 50°23' W 128°53'.

Length 216 m; draft 7.2 m.

Type: Passenger vessel. MMSI: 311622000.

Date/timePositionNaut miles runAvg speedWind from/ knotsBaromVisibWave heightAir tempDewpointWater temp
2018-Sep-19 02:14N 50°23' W 128°53'  
2018-Sep-16 09:22N 58°17' W 136°23'619.7
2018-Sep-16 09:03N 58°19' W 136°12'119.6
2018-Sep-16 09:00N 58°19' W 136°10'917.8
2018-Sep-16 08:30N 58°19' W 135°53'919.3
2018-Sep-16 08:03N 58°17' W 135°38'119.6
2018-Sep-16 08:01N 58°16' W 135°36'1019.5
2018-Sep-16 07:30N 58°13' W 135°18'228 4.9
2018-Sep-14 09:21N 55°10' W 131°11'1317.4
2018-Sep-14 08:36N 54°57' W 131°05'219.6
2018-Sep-14 08:30N 54°55' W 131°05'919.5
2018-Sep-14 08:03N 54°46' W 131°06'116.3
2018-Sep-14 08:00N 54°45' W 131°07'814.1
2018-Sep-14 07:28N 54°39' W 131°14'818.6
2018-Sep-14 07:03N 54°32' W 131°13'119.9
2018-Sep-14 06:59N 54°30' W 131°12'1019.9
2018-Sep-14 06:30N 54°22' W 131°05'919.3
2018-Sep-14 06:03N 54°13' W 131°02'119.4
2018-Sep-14 06:00N 54°12' W 131°02'1019.5
2018-Sep-14 05:30N 54°03' W 131°01'919.1
2018-Sep-14 05:03N 53°54' W 130°59'118.8
2018-Sep-14 05:00N 53°53' W 130°58'918.6
2018-Sep-14 04:30N 53°44' W 130°56'818.5
2018-Sep-14 04:03N 53°36' W 130°53'118.7
2018-Sep-14 04:00N 53°35' W 130°53'919.0
2018-Sep-14 03:30N 53°26' W 130°50'918.8
2018-Sep-14 03:03N 53°17' W 130°46'119.0
2018-Sep-14 03:00N 53°17' W 130°46'1118.8
2018-Sep-14 02:27N 53°07' W 130°40'5318.7
2018-Sep-13 23:36N 52°17' W 130°10'219.5
2018-Sep-13 23:30N 52°15' W 130°09'919.2
2018-Sep-13 23:03N 52°07' W 130°04'115.4
2018-Sep-13 23:00N 52°06' W 130°04'713.0
2018-Sep-13 22:29N 51°60' W 129°59'614.5
2018-Sep-13 22:03N 51°54' W 129°55'115.1
2018-Sep-13 22:00N 51°53' W 129°54'715.0
2018-Sep-13 21:30N 51°47' W 129°48'714.8
2018-Sep-13 21:03N 51°41' W 129°43'115.2
2018-Sep-13 21:00N 51°41' W 129°42'815.3
2018-Sep-13 20:30N 51°34' W 129°35'716.0
2018-Sep-13 20:03N 51°28' W 129°29'116.4
2018-Sep-13 20:01N 51°28' W 129°28'816.2
2018-Sep-13 19:30N 51°24' W 129°17'716.2
2018-Sep-13 19:04N 51°21' W 129°06'115.8
2018-Sep-13 19:00N 51°20' W 129°05'815.6
2018-Sep-13 18:30N 51°17' W 128°53'715.3
2018-Sep-13 18:04N 51°14' W 128°43'115.3
2018-Sep-13 18:00N 51°14' W 128°42'815.5
2018-Sep-13 17:31N 51°11' W 128°31'715.2
2018-Sep-13 17:04N 51°08' W 128°21'115.5
2018-Sep-13 17:01N 51°08' W 128°20'815.5
2018-Sep-13 16:31N 51°05' W 128°09'715.3
2018-Sep-13 16:03N 51°02' W 127°59'114.9
2018-Sep-13 16:00N 51°01' W 127°58'815.0
2018-Sep-13 15:30N 50°59' W 127°46'916.2
2018-Sep-13 14:57N 50°53' W 127°35'819.3
2018-Sep-13 14:30N 50°49' W 127°23'919.0
2018-Sep-13 14:00N 50°45' W 127°10'918.5
2018-Sep-13 13:30N 50°42' W 126°56'817.6
2018-Sep-13 13:03N 50°37' W 126°46'117.5
2018-Sep-13 13:00N 50°36' W 126°45'715.2
2018-Sep-13 12:31N 50°31' W 126°37'818.2
2018-Sep-13 12:03N 50°30' W 126°24'3816.8
2018-Sep-13 09:49N 50°20' W 125°27'515.0
2018-Sep-13 09:28N 50°16' W 125°23'717.4
2018-Sep-13 09:04N 50°09' W 125°21'112.3
2018-Sep-13 09:00N 50°08' W 125°21'510.8
2018-Sep-13 08:30N 50°04' W 125°15'4 9.6
2018-Sep-13 08:03N 50°00' W 125°12'114.6
2018-Sep-13 08:01N 49°60' W 125°12'816.7
2018-Sep-13 07:30N 49°54' W 125°03'714.5
2018-Sep-13 07:03N 49°50' W 124°55'113.5
2018-Sep-13 07:00N 49°49' W 124°54'713.8
2018-Sep-13 06:30N 49°44' W 124°47'613.8
2018-Sep-13 06:03N 49°39' W 124°41'114.0
2018-Sep-13 06:00N 49°39' W 124°41'713.6
2018-Sep-13 05:29N 49°33' W 124°34'613.6
2018-Sep-13 05:03N 49°29' W 124°28'114.1
2018-Sep-13 05:00N 49°28' W 124°27'714.2
2018-Sep-13 04:29N 49°25' W 124°17'614.6
2018-Sep-13 04:03N 49°23' W 124°08'115.7
2018-Sep-13 04:00N 49°23' W 124°07'815.6
2018-Sep-13 03:30N 49°22' W 123°55'715.0
2018-Sep-13 03:03N 49°21' W 123°45'114.8
2018-Sep-13 03:00N 49°21' W 123°43'815.0
2018-Sep-13 02:30N 49°19' W 123°32'614.7
2018-Sep-13 02:03N 49°19' W 123°22'115.1
2018-Sep-13 02:00N 49°19' W 123°21'714.9
2018-Sep-13 01:30N 49°19' W 123°09'2 5.5
2018-Sep-13 01:03N 49°17' W 123°07'0 0.2
2018-Sep-13 01:01N 49°17' W 123°07'0 0.0
2018-Sep-13 00:31N 49°17' W 123°07'0 0.0
2018-Sep-13 00:03N 49°17' W 123°07'0 0.0
2018-Sep-13 00:01N 49°17' W 123°07'0 0.0
2018-Sep-12 23:30N 49°17' W 123°07'0 0.0
2018-Sep-12 23:03N 49°17' W 123°07'0 0.0
2018-Sep-12 23:00N 49°17' W 123°07'0 0.0
2018-Sep-12 22:30N 49°17' W 123°07'0 0.0
2018-Sep-12 22:03N 49°17' W 123°07'0 0.0
2018-Sep-12 22:01N 49°17' W 123°07'0 0.0
2018-Sep-12 21:27N 49°17' W 123°07'0 0.0
2018-Sep-12 21:01N 49°17' W 123°07'0 0.0
2018-Sep-12 20:31N 49°17' W 123°07'0 0.0
2018-Sep-12 20:04N 49°17' W 123°07'0 0.0
2018-Sep-12 20:00N 49°17' W 123°07'0 0.0
2018-Sep-12 19:31N 49°17' W 123°07'0 0.0
2018-Sep-12 19:03N 49°17' W 123°07'0 0.0
2018-Sep-12 19:00N 49°17' W 123°07'0 0.0
2018-Sep-12 18:31N 49°17' W 123°07'0 0.0
2018-Sep-12 18:03N 49°17' W 123°07'0 0.0
2018-Sep-12 18:01N 49°17' W 123°07'0 0.0
2018-Sep-12 17:30N 49°17' W 123°07'0 0.0
2018-Sep-12 17:03N 49°17' W 123°07'0 0.0
2018-Sep-12 17:01N 49°17' W 123°07'0 0.0
2018-Sep-12 16:30N 49°17' W 123°07'0 0.0
2018-Sep-12 16:04N 49°17' W 123°07'0 0.0
2018-Sep-12 16:01N 49°17' W 123°07'0 0.0
2018-Sep-12 15:30N 49°17' W 123°07'0 0.0
2018-Sep-12 15:03N 49°17' W 123°07'0 0.0
2018-Sep-12 15:00N 49°17' W 123°07'0 0.0
2018-Sep-12 14:30N 49°17' W 123°07'0 0.0
2018-Sep-12 14:00N 49°17' W 123°07'0 0.0
2018-Sep-12 13:31N 49°17' W 123°07'0 0.1
2018-Sep-12 13:03N 49°17' W 123°07'0 0.2
2018-Sep-12 13:00N 49°17' W 123°07'2 4.6
2018-Sep-12 12:30N 49°19' W 123°09'511.1
2018-Sep-12 12:03N 49°18' W 123°16'112.3
2018-Sep-12 12:00N 49°18' W 123°17'611.6
2018-Sep-12 11:30N 49°12' W 123°20'612.4
2018-Sep-12 11:03N 49°07' W 123°22'112.3
2018-Sep-12 10:59N 49°06' W 123°22'511.3
2018-Sep-12 10:30N 49°01' W 123°17'511.5
2018-Sep-12 10:02N 48°58' W 123°11'011.2
2018-Sep-12 10:00N 48°58' W 123°11'611.1
2018-Sep-12 09:30N 48°54' W 123°05'511.4
2018-Sep-12 09:03N 48°49' W 123°00'112.2
2018-Sep-12 09:00N 48°49' W 123°00'611.2
2018-Sep-12 08:30N 48°45' W 123°06'512.2
2018-Sep-12 08:04N 48°42' W 123°13'114.2
2018-Sep-12 08:01N 48°42' W 123°14'611.2
2018-Sep-12 07:30N 48°36' W 123°13'512.2
2018-Sep-12 07:03N 48°31' W 123°11'112.0
2018-Sep-12 06:59N 48°30' W 123°11'612.0
2018-Sep-12 06:30N 48°24' W 123°12'511.9
2018-Sep-12 06:03N 48°22' W 123°19'112.9
2018-Sep-12 06:00N 48°22' W 123°20'4 7.1
2018-Sep-12 05:30N 48°24' W 123°24'1 0.0
2018-Sep-11 14:31N 48°25' W 123°23'0 0.4
2018-Sep-11 14:30N 48°25' W 123°23'1 2.9
2018-Sep-11 14:00N 48°24' W 123°25'4 7.5
2018-Sep-11 13:30N 48°23' W 123°20'510.6
2018-Sep-11 13:03N 48°25' W 123°13'111.2
2018-Sep-11 13:00N 48°25' W 123°13'612.7
2018-Sep-11 12:30N 48°32' W 123°13'612.5
2018-Sep-11 12:03N 48°37' W 123°15'112.8
2018-Sep-11 12:00N 48°38' W 123°15'610.6
2018-Sep-11 11:29N 48°43' W 123°12'613.3
2018-Sep-11 11:03N 48°46' W 123°04'114.2
2018-Sep-11 11:00N 48°46' W 123°03'510.2
2018-Sep-11 10:30N 48°51' W 123°04'612.8
2018-Sep-11 10:03N 48°55' W 123°10'112.0
2018-Sep-11 10:00N 48°55' W 123°11'712.7
2018-Sep-11 09:30N 48°60' W 123°18'613.1
2018-Sep-11 09:03N 49°04' W 123°25'113.5
2018-Sep-11 09:00N 49°04' W 123°26'713.8
2018-Sep-11 08:31N 49°09' W 123°33'714.4
2018-Sep-11 08:03N 49°13' W 123°41'114.8
2018-Sep-11 08:00N 49°13' W 123°42'714.3
2018-Sep-11 07:30N 49°17' W 123°51'614.0
2018-Sep-11 07:03N 49°20' W 123°60'114.6
2018-Sep-11 07:01N 49°20' W 124°01'714.6
2018-Sep-11 06:30N 49°23' W 124°11'614.3
2018-Sep-11 06:04N 49°26' W 124°20'114.0
2018-Sep-11 06:00N 49°26' W 124°21'713.9
2018-Sep-11 05:31N 49°30' W 124°30'714.7
2018-Sep-11 05:03N 49°35' W 124°36'115.4
2018-Sep-11 05:00N 49°36' W 124°37'714.5
2018-Sep-11 04:31N 49°41' W 124°44'714.6
2018-Sep-11 04:04N 49°46' W 124°51'114.3
2018-Sep-11 04:00N 49°47' W 124°52'714.4
2018-Sep-11 03:30N 49°51' W 125°00'715.4
2018-Sep-11 03:03N 49°56' W 125°08'116.2
2018-Sep-11 03:00N 49°57' W 125°09'612.7
2018-Sep-11 02:30N 50°02' W 125°14'613.2
2018-Sep-11 02:03N 50°07' W 125°19'114.6
2018-Sep-11 02:00N 50°07' W 125°20'815.6
2018-Sep-11 01:30N 50°15' W 125°23'5416.5
2018-Sep-10 22:13N 50°35' W 126°42'316.5
2018-Sep-10 22:01N 50°37' W 126°46'219.1
2018-Sep-10 21:56N 50°38' W 126°48'1118.8
2018-Sep-10 21:22N 50°43' W 127°03'618.5
2018-Sep-10 21:03N 50°45' W 127°12'218.3
2018-Sep-10 20:57N 50°45' W 127°15'714.8
2018-Sep-10 20:29N 50°46' W 127°25'714.4
2018-Sep-10 20:00N 50°52' W 127°33'918.5
2018-Sep-10 19:30N 50°57' W 127°44'1015.2
2018-Sep-10 18:49N 51°03' W 127°58'618.7
2018-Sep-10 18:31N 51°06' W 128°06'817.9
2018-Sep-10 18:04N 51°10' W 128°17'117.4
2018-Sep-10 18:00N 51°10' W 128°18'917.4
2018-Sep-10 17:30N 51°14' W 128°31'817.7
2018-Sep-10 17:04N 51°18' W 128°42'117.3
2018-Sep-10 17:01N 51°18' W 128°43'917.6
2018-Sep-10 16:31N 51°23' W 128°55'817.1
2018-Sep-10 16:03N 51°27' W 129°06'116.5
2018-Sep-10 16:01N 51°27' W 129°07'917.0
2018-Sep-10 15:30N 51°32' W 129°19'716.6
2018-Sep-10 15:04N 51°35' W 129°29'116.8
2018-Sep-10 15:00N 51°35' W 129°31'1616.1
2018-Sep-10 13:59N 51°46' W 129°51'10417.9
2018-Sep-10 08:11N 53°24' W 130°48'216.7
2018-Sep-10 08:02N 53°26' W 130°48'117.3
2018-Sep-10 08:00N 53°27' W 130°49'917.0
2018-Sep-10 07:29N 53°35' W 130°52'817.4
2018-Sep-10 07:02N 53°43' W 130°55'117.9
2018-Sep-10 07:00N 53°43' W 130°55'917.1
2018-Sep-10 06:30N 53°52' W 130°58'714.9
2018-Sep-10 06:03N 53°58' W 131°01'115.9
2018-Sep-10 06:00N 53°59' W 131°01'816.1
2018-Sep-10 05:30N 54°07' W 131°02'716.1
2018-Sep-10 05:03N 54°14' W 131°02'115.9
2018-Sep-10 05:00N 54°15' W 131°02'815.2
2018-Sep-10 04:30N 54°22' W 131°05'715.4
2018-Sep-10 04:03N 54°28' W 131°11'115.1
2018-Sep-10 04:00N 54°29' W 131°11'714.9
2018-Sep-10 03:30N 54°36' W 131°17'815.7
2018-Sep-10 02:59N 54°43' W 131°10'815.7
2018-Sep-10 02:30N 54°50' W 131°05'  

Dump ship's entire track history